Time;durP1;ratioP1;P1;durP2;ratioP2;P2;SDS_P1;SDS_P2;PMS_P1;PMS_P2;Temp;Humidity;BMP_temperature;BMP_pressure;BME280_temperature;BME280_humidity;BME280_pressure;Samples;Min_cycle;Max_cycle;Signal;HPM_P1;HPM_P2
2022/08/17 00:01:27;;;;;;;11.15;10.02;;;23.50;86.20;;;;;;4977355;28;20026;-77
2022/08/17 00:03:53;;;;;;;11.50;10.30;;;23.50;86.20;;;;;;4974269;28;20035;-77
2022/08/17 00:06:21;;;;;;;12.20;10.90;;;23.40;86.20;;;;;;4970410;28;20054;-77
2022/08/17 00:08:50;;;;;;;11.00;9.90;;;23.40;86.20;;;;;;4975678;28;20034;-77
2022/08/17 00:11:23;;;;;;;11.43;10.02;;;23.40;86.30;;;;;;4969915;28;20109;-77
2022/08/17 00:13:54;;;;;;;10.80;9.77;;;23.40;86.30;;;;;;4972436;28;20606;-77
2022/08/17 00:16:30;;;;;;;12.20;11.00;;;23.40;86.30;;;;;;4969667;28;20504;-77
2022/08/17 00:18:57;;;;;;;13.43;10.35;;;23.40;86.20;;;;;;4973566;28;20033;-77
2022/08/17 00:21:24;;;;;;;9.52;8.52;;;23.40;86.20;;;;;;4979588;28;20038;-77
2022/08/17 00:23:50;;;;;;;10.35;9.35;;;23.40;86.20;;;;;;4978143;28;20026;-77
2022/08/17 00:26:18;;;;;;;11.32;10.07;;;23.40;86.10;;;;;;4978671;28;20042;-77
2022/08/17 00:28:44;;;;;;;10.65;9.55;;;23.40;86.00;;;;;;4979200;28;20397;-77
2022/08/17 00:31:11;;;;;;;10.82;9.73;;;23.40;85.80;;;;;;4980517;28;20034;-77
2022/08/17 00:33:39;;;;;;;13.48;10.95;;;23.40;85.90;;;;;;4979084;28;20023;-77
2022/08/17 00:36:06;;;;;;;11.05;10.00;;;23.40;85.90;;;;;;4971933;28;20051;-77
2022/08/17 00:38:33;;;;;;;10.27;9.23;;;23.40;86.00;;;;;;4973819;28;20486;-77
2022/08/17 00:41:21;;;;;;;10.20;9.18;;;23.40;86.00;;;;;;4974954;28;20035;-77
2022/08/17 00:43:57;;;;;;;11.13;10.10;;;23.40;85.90;;;;;;4971248;28;20449;-77
2022/08/17 00:46:39;;;;;;;11.88;9.95;;;23.40;86.00;;;;;;4967462;28;20123;-77
2022/08/17 00:49:07;;;;;;;9.88;8.80;;;23.40;86.00;;;;;;4974194;28;20117;-77
2022/08/17 00:51:48;;;;;;;9.98;8.98;;;23.40;86.10;;;;;;4966436;28;20031;-77
2022/08/17 00:54:27;;;;;;;10.77;9.70;;;23.40;86.20;;;;;;4968797;28;20114;-77
2022/08/17 00:56:58;;;;;;;11.20;10.20;;;23.40;86.20;;;;;;4972712;28;20093;-77
2022/08/17 00:59:29;;;;;;;14.15;9.35;;;23.40;86.20;;;;;;4990558;28;20106;-77
2022/08/17 01:01:57;;;;;;;10.60;9.60;;;23.30;86.20;;;;;;4972337;28;20023;-77
2022/08/17 01:04:25;;;;;;;10.63;9.65;;;23.30;86.30;;;;;;4979209;28;20114;-77
2022/08/17 01:06:51;;;;;;;10.57;9.52;;;23.30;86.30;;;;;;4976730;28;20393;-77
2022/08/17 01:09:18;;;;;;;11.52;9.15;;;23.30;86.30;;;;;;4982941;28;20481;-77
2022/08/17 01:11:47;;;;;;;10.63;9.55;;;23.30;86.40;;;;;;4975980;28;20039;-77
2022/08/17 01:14:13;;;;;;;10.02;9.02;;;23.30;86.50;;;;;;4987214;28;20026;-77
2022/08/17 01:16:39;;;;;;;12.00;9.75;;;23.30;86.40;;;;;;4981551;28;20039;-77
2022/08/17 01:19:13;;;;;;;9.90;8.90;;;23.30;86.40;;;;;;4989163;28;20026;-78
2022/08/17 01:22:04;;;;;;;13.93;9.98;;;23.20;86.40;;;;;;4981307;28;20043;-77
2022/08/17 01:24:31;;;;;;;10.20;8.90;;;23.20;86.30;;;;;;4990546;28;20077;-78
2022/08/17 01:26:57;;;;;;;11.27;9.68;;;23.20;86.50;;;;;;4980482;28;20041;-77
2022/08/17 01:29:23;;;;;;;10.95;8.75;;;23.20;86.50;;;;;;4965377;28;20730;-77
2022/08/17 01:31:54;;;;;;;11.40;10.38;;;23.20;86.60;;;;;;4992305;28;20030;-78
2022/08/17 01:34:20;;;;;;;10.30;9.25;;;23.20;86.60;;;;;;4974431;28;20027;-77
2022/08/17 01:36:48;;;;;;;10.45;8.93;;;23.20;86.50;;;;;;4968160;28;20034;-77
2022/08/17 01:39:25;;;;;;;9.50;8.57;;;23.20;86.50;;;;;;4975856;28;20038;-77
2022/08/17 01:41:55;;;;;;;11.07;9.13;;;23.20;86.50;;;;;;4980119;28;20033;-77
2022/08/17 01:44:22;;;;;;;9.85;8.93;;;23.10;86.50;;;;;;4987046;28;20042;-77
2022/08/17 01:46:48;;;;;;;10.77;9.60;;;23.10;86.50;;;;;;4979440;28;20741;-77
2022/08/17 01:49:14;;;;;;;9.98;8.90;;;23.20;86.50;;;;;;4975471;28;20038;-78
2022/08/17 01:51:40;;;;;;;10.43;9.32;;;23.10;86.50;;;;;;4986278;28;20032;-77
2022/08/17 01:54:11;;;;;;;9.82;8.80;;;23.10;86.40;;;;;;4980840;28;20106;-77
2022/08/17 01:56:41;;;;;;;10.80;9.68;;;23.10;86.50;;;;;;4968783;28;20034;-77
2022/08/17 01:59:07;;;;;;;10.25;9.25;;;23.10;86.40;;;;;;4975636;28;20482;-77
2022/08/17 02:01:34;;;;;;;10.05;8.95;;;23.10;86.50;;;;;;4973608;28;20089;-77
2022/08/17 02:04:01;;;;;;;10.10;9.10;;;23.10;86.50;;;;;;4973114;28;20046;-78
2022/08/17 02:06:30;;;;;;;11.02;9.55;;;23.10;86.40;;;;;;4985313;28;20434;-77
2022/08/17 02:08:56;;;;;;;10.85;9.52;;;23.10;87.10;;;;;;4974811;28;20038;-77
2022/08/17 02:11:23;;;;;;;11.25;9.63;;;23.10;86.50;;;;;;4966773;28;20496;-77
2022/08/17 02:13:50;;;;;;;12.45;8.68;;;23.00;86.40;;;;;;4975171;28;20082;-77
2022/08/17 02:16:17;;;;;;;11.93;8.68;;;23.00;86.40;;;;;;4973065;28;20039;-77
2022/08/17 02:18:43;;;;;;;10.43;8.55;;;23.00;86.40;;;;;;4977488;28;20560;-77
2022/08/17 02:21:09;;;;;;;11.10;8.50;;;23.00;86.40;;;;;;4973571;28;20072;-77
2022/08/17 02:23:40;;;;;;;10.18;8.55;;;23.00;86.40;;;;;;4980708;28;20022;-77
2022/08/17 02:26:06;;;;;;;9.90;7.90;;;22.90;86.40;;;;;;4976961;28;20031;-77
2022/08/17 02:28:32;;;;;;;10.52;7.93;;;23.00;86.40;;;;;;4975817;28;20037;-77
2022/08/17 02:31:05;;;;;;;10.07;7.85;;;22.90;86.40;;;;;;4980887;28;20397;-77
2022/08/17 02:33:31;;;;;;;10.30;7.80;;;22.90;86.30;;;;;;4994667;28;20089;-77
2022/08/17 02:35:57;;;;;;;8.77;7.85;;;22.90;86.30;;;;;;4972621;28;20114;-77
2022/08/17 02:38:23;;;;;;;7.88;7.10;;;22.90;86.40;;;;;;4976118;28;20292;-77
2022/08/17 02:40:49;;;;;;;9.00;8.07;;;22.90;86.30;;;;;;4969600;28;20548;-77
2022/08/17 02:43:15;;;;;;;9.15;8.20;;;22.90;86.40;;;;;;4970319;28;20030;-77
2022/08/17 02:45:42;;;;;;;8.82;7.90;;;22.90;86.40;;;;;;4973054;28;20069;-77
2022/08/17 02:48:09;;;;;;;8.30;7.40;;;22.80;86.30;;;;;;4972907;28;20449;-77
2022/08/17 02:50:35;;;;;;;8.68;7.78;;;22.80;86.20;;;;;;4972386;28;20046;-77
2022/08/17 02:53:01;;;;;;;8.60;7.30;;;22.80;86.30;;;;;;4973796;28;20572;-77
2022/08/17 02:55:31;;;;;;;9.38;7.88;;;22.80;86.20;;;;;;4987938;28;20114;-77
2022/08/17 02:57:57;;;;;;;9.25;7.50;;;22.80;86.20;;;;;;4970915;28;20043;-77
2022/08/17 03:00:27;;;;;;;10.50;7.65;;;22.80;86.30;;;;;;4992404;28;20496;-77
2022/08/17 03:02:55;;;;;;;9.57;7.63;;;22.80;86.40;;;;;;4983779;28;20052;-77
2022/08/17 03:05:23;;;;;;;9.00;6.68;;;22.80;86.40;;;;;;4975710;28;20082;-77
2022/08/17 03:07:50;;;;;;;8.50;7.45;;;22.80;86.40;;;;;;4973991;28;20038;-77
2022/08/17 03:10:16;;;;;;;9.25;6.47;;;22.70;86.30;;;;;;4988718;28;20026;-77
2022/08/17 03:12:43;;;;;;;8.55;7.07;;;22.70;86.20;;;;;;4976455;28;20053;-77
2022/08/17 03:15:30;;;;;;;7.97;7.20;;;22.70;86.30;;;;;;4974874;28;20089;-77
2022/08/17 03:17:57;;;;;;;8.38;7.45;;;22.70;86.20;;;;;;4968328;28;20035;-77
2022/08/17 03:20:24;;;;;;;7.57;6.30;;;22.70;86.20;;;;;;4979962;28;20028;-77
2022/08/17 03:22:52;;;;;;;8.63;6.43;;;22.70;86.30;;;;;;4973281;28;20027;-77
2022/08/17 03:25:22;;;;;;;7.68;6.88;;;22.70;86.30;;;;;;4970756;28;20038;-77
2022/08/17 03:27:48;;;;;;;9.98;7.53;;;22.70;86.30;;;;;;4972720;28;20034;-78
2022/08/17 03:30:14;;;;;;;11.52;7.85;;;22.70;86.40;;;;;;4976792;28;20026;-77
2022/08/17 03:32:45;;;;;;;8.60;6.53;;;22.70;86.30;;;;;;4971976;28;20042;-77
2022/08/17 03:35:13;;;;;;;7.10;6.40;;;22.70;86.40;;;;;;4970026;28;20108;-77
2022/08/17 03:37:39;;;;;;;8.57;6.75;;;22.60;86.40;;;;;;4972123;28;20027;-77
2022/08/17 03:40:06;;;;;;;6.72;6.13;;;22.60;86.30;;;;;;4973301;28;20045;-77
2022/08/17 03:42:33;;;;;;;7.72;6.82;;;22.60;86.40;;;;;;4976978;28;20025;-77
2022/08/17 03:45:01;;;;;;;9.63;7.03;;;22.60;86.40;;;;;;4974238;28;20038;-77
2022/08/17 03:58:27;;;;;;;7.43;6.45;;;22.60;86.50;;;;;;4980227;28;20080;-77
2022/08/17 04:00:54;;;;;;;7.63;6.82;;;22.60;86.60;;;;;;4981074;28;20253;-77
2022/08/17 04:03:19;;;;;;;9.35;6.65;;;22.60;86.70;;;;;;4981189;28;20185;-77
2022/08/17 04:05:45;;;;;;;9.63;6.80;;;22.60;86.60;;;;;;4968227;28;20146;-77
2022/08/17 04:08:12;;;;;;;8.77;7.32;;;22.60;86.70;;;;;;4969114;28;20034;-77
2022/08/17 04:10:38;;;;;;;8.15;7.35;;;22.60;86.60;;;;;;4970730;28;20409;-77
2022/08/17 04:13:04;;;;;;;9.80;6.80;;;22.60;86.70;;;;;;4971093;28;20027;-77
2022/08/17 04:15:32;;;;;;;8.07;7.38;;;22.60;86.70;;;;;;4973572;28;20189;-77
2022/08/17 04:17:58;;;;;;;8.57;7.35;;;22.60;86.60;;;;;;4980312;28;20030;-77
2022/08/17 04:20:24;;;;;;;8.93;6.90;;;22.60;86.60;;;;;;4979703;28;20039;-77
2022/08/17 04:23:05;;;;;;;8.07;7.28;;;22.60;86.70;;;;;;4998879;28;20033;-77
2022/08/17 04:25:33;;;;;;;8.30;7.43;;;22.60;87.10;;;;;;4976265;28;20055;-77
2022/08/17 04:28:00;;;;;;;8.68;7.47;;;22.70;87.50;;;;;;4975026;28;20030;-77
2022/08/17 04:30:30;;;;;;;8.43;7.53;;;22.60;86.90;;;;;;4991995;28;20027;-77
2022/08/17 04:32:58;;;;;;;8.43;7.57;;;22.60;87.10;;;;;;4974077;28;20027;-77
2022/08/17 04:35:30;;;;;;;10.80;7.90;;;22.70;87.00;;;;;;4977874;28;20122;-77
2022/08/17 04:37:56;;;;;;;7.63;6.90;;;22.60;86.70;;;;;;4975975;28;20053;-77
2022/08/17 04:43:16;;;;;;;9.07;8.18;;;22.60;86.80;;;;;;4976216;28;20098;-77
2022/08/17 04:45:46;;;;;;;10.18;7.38;;;22.60;86.70;;;;;;4965686;28;20125;-77
2022/08/17 04:48:13;;;;;;;10.02;7.85;;;22.60;86.70;;;;;;4990916;28;20031;-77
2022/08/17 04:50:42;;;;;;;8.13;7.32;;;22.60;86.70;;;;;;4969927;28;20037;-77
2022/08/17 04:53:09;;;;;;;10.90;8.35;;;22.60;86.80;;;;;;4974057;28;20035;-77
2022/08/17 04:55:35;;;;;;;9.00;7.70;;;22.60;86.80;;;;;;4970147;28;20527;-77
2022/08/17 04:58:01;;;;;;;8.10;7.25;;;22.60;86.90;;;;;;4979697;28;20117;-78
2022/08/17 05:00:27;;;;;;;9.18;8.13;;;22.60;86.90;;;;;;4973949;28;20158;-77
2022/08/17 05:02:54;;;;;;;9.00;8.02;;;22.60;86.90;;;;;;4973969;28;20081;-77
2022/08/17 05:05:27;;;;;;;8.00;7.20;;;22.60;86.80;;;;;;4970966;28;20031;-77
2022/08/17 05:07:58;;;;;;;8.43;7.57;;;22.60;86.90;;;;;;4974623;28;20031;-77
2022/08/17 05:10:27;;;;;;;8.60;7.80;;;22.60;87.40;;;;;;4989157;28;20552;-77
2022/08/17 05:13:01;;;;;;;8.52;7.63;;;22.60;87.20;;;;;;4988591;28;20544;-77
2022/08/17 05:15:29;;;;;;;8.38;6.45;;;22.60;87.40;;;;;;4977042;28;20031;-77
2022/08/17 05:17:54;;;;;;;8.05;7.25;;;22.60;87.40;;;;;;4975224;28;20049;-77
2022/08/17 05:20:21;;;;;;;9.02;8.13;;;22.60;87.20;;;;;;4991837;28;20046;-77
2022/08/17 05:22:52;;;;;;;8.35;7.43;;;22.70;87.20;;;;;;4980449;28;20026;-77
2022/08/17 05:25:20;;;;;;;8.85;6.93;;;22.70;87.10;;;;;;4972183;28;20037;-77
2022/08/17 05:27:46;;;;;;;8.35;7.55;;;22.70;87.00;;;;;;4981380;28;20027;-77
2022/08/17 05:30:13;;;;;;;9.30;7.78;;;22.70;86.90;;;;;;4976059;28;20113;-77
2022/08/17 05:32:48;;;;;;;9.35;8.00;;;22.70;87.00;;;;;;4977597;28;20026;-77
2022/08/17 05:35:14;;;;;;;9.15;8.20;;;22.60;87.00;;;;;;4973207;28;20089;-77
2022/08/17 05:37:40;;;;;;;10.75;8.40;;;22.70;87.10;;;;;;4972659;28;20023;-77
2022/08/17 05:40:06;;;;;;;8.77;7.88;;;22.70;87.00;;;;;;4975482;28;20118;-77
2022/08/17 05:42:32;;;;;;;8.57;7.68;;;22.70;86.80;;;;;;4977027;28;20564;-77
2022/08/17 05:44:58;;;;;;;8.95;8.15;;;22.70;87.00;;;;;;4979860;28;20050;-77
2022/08/17 05:47:25;;;;;;;10.73;8.38;;;22.60;87.00;;;;;;4972116;28;20035;-77
2022/08/17 05:49:51;;;;;;;10.10;7.72;;;22.60;87.10;;;;;;4972108;28;20038;-77
2022/08/17 05:53:02;;;;;;;10.75;7.30;;;22.60;87.20;;;;;;4974553;28;20031;-77
2022/08/17 05:55:41;;;;;;;8.52;7.65;;;22.60;87.30;;;;;;4977714;28;20026;-77
2022/08/17 05:58:18;;;;;;;8.75;7.85;;;22.60;87.20;;;;;;4988975;28;20441;-78
2022/08/17 06:00:56;;;;;;;9.30;8.40;;;22.60;87.20;;;;;;4994316;28;20118;-78
2022/08/17 06:03:46;;;;;;;8.55;7.75;;;22.60;87.30;;;;;;4981193;28;20097;-79
2022/08/17 06:06:30;;;;;;;9.27;8.38;;;22.70;87.40;;;;;;4978758;28;20434;-79
2022/08/17 06:09:16;;;;;;;10.32;9.23;;;22.60;87.30;;;;;;4989773;28;20062;-77
2022/08/17 06:12:20;;;;;;;10.10;7.78;;;22.60;87.30;;;;;;4974321;28;20027;-77
2022/08/17 06:15:08;;;;;;;8.93;8.05;;;22.60;87.40;;;;;;4987267;28;20038;-77
2022/08/17 06:17:35;;;;;;;8.27;7.43;;;22.60;87.40;;;;;;4978313;28;20036;-77
2022/08/17 06:20:09;;;;;;;7.80;7.07;;;22.60;87.50;;;;;;4976927;28;20437;-77
2022/08/17 06:22:41;;;;;;;11.00;8.43;;;22.60;87.50;;;;;;4974208;28;20438;-77
2022/08/17 06:25:17;;;;;;;10.20;9.20;;;22.60;87.50;;;;;;4964573;28;20034;-77
2022/08/17 06:27:52;;;;;;;9.05;8.18;;;22.60;87.50;;;;;;4987821;28;20035;-77
2022/08/17 06:30:24;;;;;;;9.10;8.20;;;22.60;87.50;;;;;;4977176;28;20030;-79
2022/08/17 06:32:52;;;;;;;16.47;8.77;;;22.60;87.40;;;;;;4974995;28;20489;-78
2022/08/17 06:35:33;;;;;;;9.43;8.45;;;22.60;87.40;;;;;;4972846;28;20162;-78
2022/08/17 06:38:31;;;;;;;8.38;7.57;;;22.60;87.50;;;;;;4967411;28;20037;-78
2022/08/17 06:41:11;;;;;;;11.82;10.63;;;22.60;87.60;;;;;;4985262;28;20077;-78
2022/08/17 06:43:42;;;;;;;9.20;8.30;;;22.60;87.60;;;;;;4975606;28;20080;-78
2022/08/17 06:46:34;;;;;;;10.85;9.18;;;22.70;87.60;;;;;;4971212;28;20032;-78
2022/08/17 06:49:07;;;;;;;12.38;9.93;;;22.60;87.50;;;;;;4982251;28;20261;-78
2022/08/17 06:51:49;;;;;;;9.52;8.45;;;22.60;87.50;;;;;;4979610;28;20034;-79
2022/08/17 06:54:24;;;;;;;8.30;7.45;;;22.60;87.50;;;;;;4965528;28;20482;-79
2022/08/17 06:57:16;;;;;;;14.32;10.18;;;22.60;87.50;;;;;;4972731;28;20027;-77
2022/08/17 07:00:11;;;;;;;10.63;9.63;;;22.60;87.60;;;;;;4958796;28;20067;-77
2022/08/17 07:02:44;;;;;;;9.32;8.25;;;22.70;87.70;;;;;;4961815;28;20027;-77
2022/08/17 07:05:10;;;;;;;10.57;9.52;;;22.70;87.70;;;;;;4967726;28;20104;-77
2022/08/17 07:08:02;;;;;;;10.63;9.63;;;22.70;87.70;;;;;;4972173;28;20029;-77
2022/08/17 07:10:33;;;;;;;8.57;7.68;;;22.70;87.70;;;;;;4973801;28;20516;-78
2022/08/17 07:13:43;;;;;;;9.57;8.35;;;22.70;88.30;;;;;;4981249;28;20034;-76
2022/08/17 07:16:27;;;;;;;11.52;8.75;;;22.70;87.60;;;;;;4970439;28;20659;-77
2022/08/17 07:18:55;;;;;;;9.88;8.88;;;22.70;87.50;;;;;;4981791;28;20049;-77
2022/08/17 07:21:49;;;;;;;12.27;8.20;;;22.70;87.50;;;;;;4976048;28;20504;-77
2022/08/17 07:24:51;;;;;;;9.45;8.55;;;22.70;87.50;;;;;;4954646;28;20046;-77
2022/08/17 07:27:21;;;;;;;8.30;7.50;;;22.70;87.50;;;;;;4975172;28;20034;-77
2022/08/17 07:29:55;;;;;;;8.10;7.30;;;22.70;87.40;;;;;;4975665;28;20023;-78
2022/08/17 07:32:35;;;;;;;8.45;7.65;;;22.70;87.40;;;;;;4966695;28;20183;-77
2022/08/17 07:35:09;;;;;;;9.82;8.82;;;22.70;87.50;;;;;;4971426;28;20027;-77
2022/08/17 07:37:51;;;;;;;10.13;7.75;;;22.70;87.50;;;;;;4994299;28;20073;-78
2022/08/17 07:40:26;;;;;;;8.32;7.53;;;22.70;87.50;;;;;;4970700;28;20031;-77
2022/08/17 07:43:31;;;;;;;8.77;7.25;;;22.70;87.50;;;;;;4972225;28;20081;-77
2022/08/17 07:49:23;;;;;;;9.88;7.70;;;22.70;87.50;;;;;;4976966;28;20037;-77
2022/08/17 07:51:49;;;;;;;9.20;7.50;;;22.70;87.40;;;;;;4972534;28;20031;-79
2022/08/17 07:54:15;;;;;;;17.50;8.15;;;22.70;87.50;;;;;;4969175;28;20038;-78
2022/08/17 07:56:54;;;;;;;9.18;7.95;;;22.70;87.60;;;;;;4978732;28;20078;-79
2022/08/17 07:59:58;;;;;;;9.43;7.90;;;22.70;87.50;;;;;;4973278;28;20034;-78
2022/08/17 08:02:27;;;;;;;9.10;8.20;;;22.70;87.50;;;;;;4956748;28;20038;-78
2022/08/17 08:05:11;;;;;;;8.70;7.80;;;22.70;87.60;;;;;;4972711;28;20037;-77
2022/08/17 08:07:49;;;;;;;9.20;7.72;;;22.70;87.70;;;;;;4980185;28;20034;-77
2022/08/17 08:10:39;;;;;;;8.15;7.32;;;22.70;87.70;;;;;;4990314;28;20034;-77
2022/08/17 08:13:24;;;;;;;8.95;8.02;;;22.70;87.70;;;;;;4977445;28;20035;-77
2022/08/17 08:15:52;;;;;;;9.05;7.78;;;22.70;87.80;;;;;;4988255;28;20035;-79
2022/08/17 08:18:23;;;;;;;11.65;9.10;;;22.70;87.80;;;;;;4971386;28;20034;-79
2022/08/17 08:20:56;;;;;;;9.85;8.68;;;22.70;87.80;;;;;;4977807;28;20019;-79
2022/08/17 08:23:31;;;;;;;8.98;8.07;;;22.70;87.80;;;;;;4980493;28;20019;-79
2022/08/17 08:26:15;;;;;;;7.70;7.00;;;22.70;87.90;;;;;;4978575;28;20118;-79
2022/08/17 08:29:18;;;;;;;9.52;8.63;;;22.70;87.80;;;;;;4972601;28;20440;-77
2022/08/17 08:31:56;;;;;;;8.00;7.22;;;22.70;87.90;;;;;;4979238;28;20121;-79
2022/08/17 08:34:47;;;;;;;8.07;7.28;;;22.70;87.90;;;;;;4984749;28;20090;-78
2022/08/17 08:37:16;;;;;;;8.63;7.10;;;22.70;87.90;;;;;;4981018;28;20035;-77
2022/08/17 08:40:29;;;;;;;7.95;7.15;;;22.70;87.90;;;;;;4976123;28;20386;-78
2022/08/17 08:43:02;;;;;;;10.05;9.13;;;22.70;87.90;;;;;;4968897;28;20037;-79
2022/08/17 08:45:37;;;;;;;11.40;8.82;;;22.70;88.00;;;;;;4985091;28;20027;-79
2022/08/17 08:48:06;;;;;;;10.90;7.78;;;22.70;88.00;;;;;;4978208;28;20042;-78
2022/08/17 08:50:41;;;;;;;8.75;7.55;;;22.70;88.00;;;;;;4978749;28;20030;-79
2022/08/17 08:53:10;;;;;;;9.55;7.88;;;22.70;88.00;;;;;;4978882;28;20041;-79
2022/08/17 08:55:57;;;;;;;8.48;7.70;;;22.70;88.10;;;;;;4977131;28;20019;-79
2022/08/17 08:58:57;;;;;;;8.95;8.05;;;22.70;88.00;;;;;;4977380;28;21033;-78
2022/08/17 09:01:29;;;;;;;10.68;7.50;;;22.70;88.10;;;;;;4990883;28;20038;-78
2022/08/17 09:04:12;;;;;;;8.13;7.30;;;22.70;88.10;;;;;;4975066;28;20023;-78
2022/08/17 09:07:11;;;;;;;8.63;7.30;;;22.70;88.20;;;;;;4970754;28;20034;-78
2022/08/17 09:09:45;;;;;;;9.10;7.90;;;22.70;88.20;;;;;;4984889;28;20030;-78
2022/08/17 09:12:56;;;;;;;7.85;7.13;;;22.70;88.30;;;;;;4980927;28;20121;-78
2022/08/17 09:15:36;;;;;;;7.95;7.15;;;22.70;88.30;;;;;;4970433;28;20070;-78
2022/08/17 09:18:12;;;;;;;7.55;6.65;;;22.70;88.20;;;;;;4971921;28;20397;-79
2022/08/17 09:20:45;;;;;;;8.75;7.93;;;22.60;88.20;;;;;;4977874;28;20458;-78
2022/08/17 09:23:29;;;;;;;8.93;8.03;;;22.70;88.30;;;;;;4977127;28;20478;-77
2022/08/17 09:26:01;;;;;;;;;;;22.60;88.50;;;;;;4973790;28;20277;-77
2022/08/17 09:28:41;;;;;;;9.20;8.30;;;22.60;88.50;;;;;;4974069;28;19911;-77
2022/08/17 09:31:11;;;;;;;8.18;7.38;;;22.60;88.50;;;;;;4991907;28;20041;-77
2022/08/17 09:33:44;;;;;;;9.50;8.60;;;22.60;88.60;;;;;;4973566;28;20027;-77
2022/08/17 09:36:17;;;;;;;10.68;9.20;;;22.60;88.60;;;;;;4977627;28;20026;-77
2022/08/17 09:39:09;;;;;;;11.55;8.80;;;22.60;88.50;;;;;;4979014;28;20031;-77
2022/08/17 09:41:51;;;;;;;8.05;7.25;;;22.60;88.70;;;;;;4971125;28;20058;-77
2022/08/17 09:44:55;;;;;;;10.50;9.48;;;22.60;88.70;;;;;;4990657;28;20169;-77
2022/08/17 09:47:45;;;;;;;10.75;9.40;;;22.60;88.70;;;;;;4980776;28;20031;-77
2022/08/17 09:50:18;;;;;;;15.25;10.77;;;22.60;88.80;;;;;;4978330;28;20065;-78
2022/08/17 09:52:44;;;;;;;11.27;10.10;;;22.60;88.90;;;;;;4983657;28;20027;-77
2022/08/17 09:55:10;;;;;;;14.63;9.20;;;22.60;88.70;;;;;;4974771;28;20121;-76
2022/08/17 09:58:12;;;;;;;10.57;9.50;;;22.60;88.70;;;;;;4975102;28;20533;-77
2022/08/17 10:00:48;;;;;;;15.20;8.88;;;22.60;88.80;;;;;;4969474;28;20085;-76
2022/08/17 10:03:49;;;;;;;10.90;9.45;;;22.60;88.80;;;;;;4988466;28;20093;-76
2022/08/17 10:06:29;;;;;;;12.85;9.40;;;22.60;88.90;;;;;;4990649;28;20042;-77
2022/08/17 10:09:17;;;;;;;8.50;7.65;;;22.60;88.90;;;;;;4971801;28;20042;-77
2022/08/17 10:15:06;;;;;;;11.68;10.45;;;22.60;88.90;;;;;;4973291;28;20069;-77
2022/08/17 10:17:58;;;;;;;11.25;10.10;;;22.60;89.20;;;;;;4978114;28;20031;-77
2022/08/17 10:20:32;;;;;;;13.55;10.68;;;22.60;89.00;;;;;;4969286;28;20042;-77
2022/08/17 10:28:48;;;;;;;13.30;11.90;;;22.60;89.10;;;;;;4982388;28;20487;-78
2022/08/17 10:31:30;;;;;;;14.60;12.18;;;22.60;89.30;;;;;;4974400;28;20034;-77
2022/08/17 10:34:05;;;;;;;17.58;14.18;;;22.60;89.30;;;;;;4979897;28;20117;-77
2022/08/17 10:36:38;;;;;;;14.27;11.57;;;22.60;89.50;;;;;;4975963;28;20062;-77
2022/08/17 10:39:23;;;;;;;11.75;10.40;;;22.60;89.60;;;;;;4979716;28;20062;-77
2022/08/17 10:41:55;;;;;;;14.35;11.35;;;22.60;89.30;;;;;;4972100;28;20101;-77
2022/08/17 10:44:34;;;;;;;11.60;10.40;;;22.60;89.50;;;;;;4980757;28;20093;-77
2022/08/17 10:47:13;;;;;;;11.23;10.02;;;22.60;89.40;;;;;;4982931;28;20066;-76
2022/08/17 10:49:46;;;;;;;13.55;12.15;;;22.60;89.20;;;;;;4973227;28;20082;-77
2022/08/17 10:52:29;;;;;;;13.27;11.82;;;22.60;89.10;;;;;;4977231;28;20062;-76
2022/08/17 10:54:57;;;;;;;15.00;13.30;;;22.60;89.30;;;;;;4973908;28;20119;-77
2022/08/17 10:57:30;;;;;;;13.02;11.15;;;22.60;89.40;;;;;;4975005;28;20082;-77
2022/08/17 11:00:00;;;;;;;13.55;11.45;;;22.60;89.40;;;;;;4972839;28;20491;-78
2022/08/17 11:02:48;;;;;;;11.93;10.77;;;22.70;89.50;;;;;;4974044;28;20110;-78
2022/08/17 11:05:29;;;;;;;15.60;12.23;;;22.70;89.40;;;;;;4979031;28;20100;-77
2022/08/17 11:08:25;;;;;;;17.45;13.52;;;22.70;89.60;;;;;;4969403;28;20169;-78
2022/08/17 11:11:10;;;;;;;14.25;12.18;;;22.70;89.40;;;;;;4972966;28;20118;-77
2022/08/17 11:13:47;;;;;;;15.02;12.20;;;22.70;89.60;;;;;;4976035;28;20118;-77
2022/08/17 11:16:28;;;;;;;14.38;12.70;;;22.70;89.40;;;;;;4978994;28;20034;-77
2022/08/17 11:19:15;;;;;;;16.65;12.57;;;22.70;89.50;;;;;;4994762;28;20022;-78
2022/08/17 11:22:10;;;;;;;13.68;12.27;;;22.70;89.60;;;;;;4976832;28;20038;-78
2022/08/17 11:24:47;;;;;;;15.05;12.82;;;22.70;89.40;;;;;;4975632;28;20030;-77
2022/08/17 11:27:27;;;;;;;15.38;13.88;;;22.70;89.50;;;;;;4971822;28;20023;-78
2022/08/17 11:30:04;;;;;;;16.88;13.43;;;22.70;89.60;;;;;;4969260;28;20053;-78
2022/08/17 11:32:42;;;;;;;15.23;13.18;;;22.70;89.60;;;;;;4987620;28;20033;-77
2022/08/17 11:35:19;;;;;;;16.23;14.38;;;22.70;89.60;;;;;;4973883;28;21914;-77
2022/08/17 11:38:12;;;;;;;21.55;14.13;;;22.70;89.60;;;;;;4969161;28;20645;-77
2022/08/17 11:40:50;;;;;;;18.52;13.85;;;22.70;89.60;;;;;;4972453;28;20244;-77
2022/08/17 11:43:55;;;;;;;15.93;14.30;;;22.70;89.80;;;;;;4977628;28;20026;-78
2022/08/17 11:52:47;;;;;;;15.43;13.93;;;22.70;89.80;;;;;;4974497;28;20053;-78
2022/08/17 11:55:30;;;;;;;17.13;15.38;;;22.70;89.60;;;;;;4968280;28;20034;-78
2022/08/17 11:58:24;;;;;;;16.90;15.10;;;22.70;89.70;;;;;;4989394;28;20370;-78
2022/08/17 12:00:55;;;;;;;16.48;14.00;;;22.70;89.70;;;;;;4964747;28;20486;-78
2022/08/17 12:03:33;;;;;;;15.52;13.82;;;22.70;89.70;;;;;;4975135;28;20054;-78
2022/08/17 12:06:06;;;;;;;18.17;14.40;;;22.70;89.70;;;;;;4974441;28;20496;-78
2022/08/17 12:08:33;;;;;;;16.80;15.00;;;22.70;89.60;;;;;;4977554;28;20101;-78
2022/08/17 12:11:17;;;;;;;17.45;15.27;;;22.70;89.70;;;;;;4976229;28;20039;-78
2022/08/17 12:13:50;;;;;;;16.55;14.43;;;22.70;89.60;;;;;;4978168;28;20062;-78
2022/08/17 12:16:19;;;;;;;17.83;15.50;;;22.70;89.70;;;;;;4979878;28;20054;-79
2022/08/17 12:19:04;;;;;;;16.38;14.70;;;22.70;89.90;;;;;;4972637;28;20039;-78
2022/08/17 12:21:35;;;;;;;16.30;14.57;;;22.70;89.90;;;;;;4976843;28;20505;-79
2022/08/17 12:24:05;;;;;;;16.35;14.65;;;22.80;89.90;;;;;;4986870;28;20138;-78
2022/08/17 12:26:34;;;;;;;16.58;13.98;;;22.70;89.80;;;;;;4991503;28;20676;-78
2022/08/17 12:29:03;;;;;;;17.25;14.75;;;22.70;89.80;;;;;;4983008;28;20073;-78
2022/08/17 12:32:03;;;;;;;15.65;13.52;;;22.70;89.90;;;;;;4980969;28;20447;-78
2022/08/17 12:34:40;;;;;;;18.40;16.50;;;22.80;90.00;;;;;;4963832;28;20042;-78
2022/08/17 12:37:32;;;;;;;26.05;20.67;;;22.80;90.00;;;;;;4985937;28;20038;-77
2022/08/17 12:40:07;;;;;;;23.52;20.23;;;22.90;90.80;;;;;;4989664;28;20038;-76
2022/08/17 12:42:36;;;;;;;17.75;15.80;;;22.90;90.40;;;;;;4976594;28;20054;-76
2022/08/17 12:45:07;;;;;;;21.33;19.05;;;22.90;90.10;;;;;;4973708;28;20413;-77
2022/08/17 12:47:36;;;;;;;30.33;20.05;;;22.90;90.10;;;;;;4985965;28;20105;-76
2022/08/17 12:50:12;;;;;;;19.35;17.35;;;22.90;90.20;;;;;;4962781;28;20120;-76
2022/08/17 12:52:41;;;;;;;25.83;23.10;;;22.90;90.30;;;;;;4989028;28;20078;-76
2022/08/17 12:55:21;;;;;;;34.92;28.63;;;22.80;90.20;;;;;;4971709;28;20478;-77
2022/08/17 12:57:52;;;;;;;21.50;19.20;;;22.80;90.20;;;;;;4983678;28;20035;-76
2022/08/17 13:00:31;;;;;;;23.95;21.55;;;22.80;90.20;;;;;;4978033;28;20023;-76
2022/08/17 13:03:11;;;;;;;27.42;21.60;;;22.80;90.20;;;;;;4975581;28;20026;-77
2022/08/17 13:06:03;;;;;;;24.15;21.63;;;22.80;90.30;;;;;;4976220;28;20041;-76
2022/08/17 13:08:36;;;;;;;22.35;19.95;;;22.80;90.20;;;;;;4970347;28;20031;-77
2022/08/17 13:11:23;;;;;;;23.42;20.92;;;22.70;90.20;;;;;;4968213;28;20486;-77
2022/08/17 13:13:54;;;;;;;26.02;22.77;;;22.70;90.20;;;;;;4969704;28;20062;-77
2022/08/17 13:16:26;;;;;;;23.70;20.10;;;22.70;90.20;;;;;;4984816;28;20034;-76
2022/08/17 13:19:13;;;;;;;22.85;20.55;;;22.70;90.10;;;;;;4984232;28;20082;-77
2022/08/17 13:21:48;;;;;;;26.23;19.70;;;22.70;90.20;;;;;;4973242;28;20553;-76
2022/08/17 13:24:24;;;;;;;22.55;20.17;;;22.70;90.20;;;;;;4974524;28;20085;-77
2022/08/17 13:26:50;;;;;;;21.08;18.83;;;22.70;90.20;;;;;;4979119;28;20059;-76
2022/08/17 13:29:37;;;;;;;23.33;19.90;;;22.70;90.20;;;;;;4968549;28;20479;-76
2022/08/17 13:32:05;;;;;;;24.80;19.75;;;22.70;90.20;;;;;;4964101;28;20073;-76
2022/08/17 13:34:39;;;;;;;28.98;20.20;;;22.70;90.20;;;;;;4971282;28;20027;-76
2022/08/17 13:37:27;;;;;;;23.05;19.95;;;22.70;90.20;;;;;;4968996;28;20045;-76
2022/08/17 13:39:54;;;;;;;22.00;18.75;;;22.70;90.20;;;;;;4973341;28;20043;-76
2022/08/17 13:42:33;;;;;;;21.25;18.92;;;22.70;90.20;;;;;;4973322;28;20027;-76
2022/08/17 13:45:00;;;;;;;20.50;18.38;;;22.70;90.50;;;;;;4973742;28;20034;-76
2022/08/17 13:47:27;;;;;;;23.33;18.85;;;22.70;90.30;;;;;;4990651;28;20158;-76
2022/08/17 13:49:54;;;;;;;23.98;19.83;;;22.70;90.20;;;;;;4966898;28;20031;-76